createdAt,value
2022-11-10T00:00:50.230Z,9.71
2022-11-10T00:03:38.417Z,9.73
2022-11-10T00:06:24.482Z,9.73
2022-11-10T00:09:10.653Z,9.71
2022-11-10T00:11:56.615Z,9.73
2022-11-10T00:15:01.359Z,9.71
2022-11-10T00:17:47.283Z,9.72
2022-11-10T00:20:33.215Z,9.69
2022-11-10T00:23:19.776Z,9.71
2022-11-10T00:26:11.838Z,9.69
2022-11-10T00:28:57.687Z,9.69
2022-11-10T00:31:44.796Z,9.69
2022-11-10T00:34:30.679Z,9.64
2022-11-10T00:37:16.844Z,9.68
2022-11-10T00:40:02.857Z,9.64
2022-11-10T00:42:51.315Z,9.67
2022-11-10T00:45:37.528Z,9.65
2022-11-10T00:48:23.621Z,9.57
2022-11-10T00:51:22.438Z,9.65
2022-11-10T00:54:09.104Z,9.65
2022-11-10T00:56:54.817Z,9.64
2022-11-10T00:59:41.018Z,9.63
2022-11-10T01:02:28.361Z,9.62
2022-11-10T01:05:14.228Z,9.62
2022-11-10T01:07:59.825Z,9.62
2022-11-10T01:10:45.860Z,9.60
2022-11-10T01:13:32.423Z,9.61
2022-11-10T01:16:24.106Z,9.61
2022-11-10T01:19:09.980Z,9.58
2022-11-10T01:21:56.203Z,9.61
2022-11-10T01:24:42.241Z,9.56
2022-11-10T01:27:28.549Z,9.61
2022-11-10T01:30:14.426Z,9.57
2022-11-10T01:33:00.388Z,9.59
2022-11-10T01:35:46.392Z,9.58
2022-11-10T01:38:35.229Z,9.58
2022-11-10T01:41:21.443Z,9.58
2022-11-10T01:44:24.929Z,9.61
2022-11-10T01:47:10.902Z,9.60
2022-11-10T01:49:56.906Z,9.61
2022-11-10T01:52:44.623Z,9.60
2022-11-10T01:55:32.375Z,9.58
2022-11-10T01:58:22.001Z,9.61
2022-11-10T02:01:09.002Z,9.62
2022-11-10T02:04:00.609Z,9.61
2022-11-10T02:06:48.943Z,9.60
2022-11-10T02:09:35.092Z,9.59
2022-11-10T02:12:37.138Z,9.59
2022-11-10T02:15:24.610Z,9.62
2022-11-10T02:18:11.117Z,9.58
2022-11-10T02:20:57.131Z,9.61
2022-11-10T02:23:54.026Z,9.62
2022-11-10T02:26:49.555Z,9.62
2022-11-10T02:29:35.429Z,9.61
2022-11-10T02:32:22.607Z,9.59
2022-11-10T02:35:09.986Z,9.61
2022-11-10T02:37:56.895Z,9.61
2022-11-10T02:40:43.059Z,9.57
2022-11-10T02:43:30.246Z,9.63
2022-11-10T02:46:16.008Z,9.62
2022-11-10T02:49:02.154Z,9.62
2022-11-10T02:51:47.815Z,9.62
2022-11-10T02:54:38.080Z,9.60
2022-11-10T02:57:24.127Z,9.63
2022-11-10T03:00:10.877Z,9.64
2022-11-10T03:02:58.589Z,9.65
2022-11-10T03:05:44.756Z,9.66
2022-11-10T03:08:32.688Z,9.67
2022-11-10T03:11:18.612Z,9.67
2022-11-10T03:14:10.039Z,9.67
2022-11-10T03:16:55.962Z,9.68
2022-11-10T03:19:43.199Z,9.69
2022-11-10T03:22:29.019Z,9.69
2022-11-10T03:25:15.258Z,9.71
2022-11-10T03:28:01.261Z,9.72
2022-11-10T03:30:46.984Z,9.72
2022-11-10T03:33:33.005Z,9.71
2022-11-10T03:36:18.925Z,9.70
2022-11-10T03:39:06.042Z,9.67
2022-11-10T03:41:53.110Z,9.72
2022-11-10T03:44:49.305Z,9.72
2022-11-10T03:47:35.514Z,9.71
2022-11-10T03:50:21.522Z,9.73
2022-11-10T03:53:07.312Z,9.70
2022-11-10T03:55:53.412Z,9.76
2022-11-10T03:58:39.564Z,9.76
2022-11-10T04:01:25.864Z,9.78
2022-11-10T04:04:32.999Z,9.80
2022-11-10T04:07:37.899Z,9.80
2022-11-10T04:10:23.632Z,9.77
2022-11-10T04:13:28.566Z,9.82
2022-11-10T04:16:14.156Z,9.81
2022-11-10T04:19:01.056Z,9.85
2022-11-10T04:21:47.406Z,9.86
2022-11-10T04:24:33.207Z,9.85
2022-11-10T04:27:19.333Z,9.86
2022-11-10T04:30:06.145Z,9.90
2022-11-10T04:32:54.109Z,9.89
2022-11-10T04:35:40.034Z,9.91
2022-11-10T04:38:26.338Z,9.95
2022-11-10T04:41:12.608Z,9.96
2022-11-10T04:43:59.518Z,9.98
2022-11-10T04:46:45.913Z,9.96
2022-11-10T04:49:31.672Z,9.99
2022-11-10T04:52:17.611Z,9.97
2022-11-10T04:55:03.873Z,10.01
2022-11-10T04:57:49.998Z,10.00
2022-11-10T05:00:36.508Z,10.02
2022-11-10T05:03:23.063Z,10.01
2022-11-10T05:06:09.909Z,10.01
2022-11-10T05:08:55.758Z,10.05
2022-11-10T05:11:41.735Z,9.98
2022-11-10T05:14:27.591Z,10.04
2022-11-10T05:17:13.767Z,10.06
2022-11-10T05:19:59.659Z,10.05
2022-11-10T05:22:49.113Z,10.07
2022-11-10T05:25:38.172Z,10.07
2022-11-10T05:28:24.020Z,10.07
2022-11-10T05:31:11.008Z,10.09
2022-11-10T05:33:58.197Z,10.09
2022-11-10T05:36:44.326Z,10.09
2022-11-10T05:39:30.102Z,10.10
2022-11-10T05:42:16.339Z,10.10
2022-11-10T05:45:02.434Z,10.12
2022-11-10T05:47:48.895Z,10.12
2022-11-10T05:50:35.056Z,10.11
2022-11-10T05:53:20.845Z,10.10
2022-11-10T05:56:07.776Z,10.11
2022-11-10T05:58:53.809Z,10.14
2022-11-10T06:01:40.504Z,10.15
2022-11-10T06:04:26.518Z,10.17
2022-11-10T06:07:12.523Z,10.17
2022-11-10T06:09:58.636Z,10.18
2022-11-10T06:12:46.733Z,10.20
2022-11-10T06:15:33.400Z,10.18
2022-11-10T06:18:19.166Z,10.19
2022-11-10T06:21:05.362Z,10.24
2022-11-10T06:23:51.115Z,10.27
2022-11-10T06:26:37.279Z,10.29
2022-11-10T06:29:26.778Z,10.20
2022-11-10T06:32:13.065Z,10.34
2022-11-10T06:35:00.664Z,10.36
2022-11-10T06:37:47.277Z,10.35
2022-11-10T06:40:33.537Z,10.42
2022-11-10T06:43:19.472Z,10.44
2022-11-10T06:46:05.629Z,10.46
2022-11-10T06:48:51.836Z,10.49
2022-11-10T06:51:37.857Z,10.45
2022-11-10T06:54:23.946Z,10.49
2022-11-10T06:57:09.889Z,10.45
2022-11-10T06:59:56.309Z,10.56
2022-11-10T07:02:42.415Z,10.61
2022-11-10T07:05:29.731Z,10.61
2022-11-10T07:08:16.570Z,10.66
2022-11-10T07:11:02.462Z,10.70
2022-11-10T07:13:48.382Z,10.73
2022-11-10T07:16:34.495Z,10.76
2022-11-10T07:19:20.539Z,10.76
2022-11-10T07:22:11.219Z,10.85
2022-11-10T07:24:59.390Z,10.88
2022-11-10T07:27:45.695Z,10.93
2022-11-10T07:30:33.444Z,10.98
2022-11-10T07:33:19.837Z,11.02
2022-11-10T07:36:07.349Z,11.04
2022-11-10T07:39:02.559Z,11.09
2022-11-10T07:41:58.029Z,11.17
2022-11-10T07:44:43.886Z,11.19
2022-11-10T07:47:34.916Z,11.22
2022-11-10T07:50:21.114Z,11.24
2022-11-10T07:53:10.053Z,11.31
2022-11-10T07:55:58.486Z,11.36
2022-11-10T07:58:44.246Z,11.38
2022-11-10T08:01:30.393Z,11.41
2022-11-10T08:04:16.322Z,11.46
2022-11-10T08:07:02.253Z,11.48
2022-11-10T08:09:51.096Z,11.51
2022-11-10T08:12:37.164Z,11.53
2022-11-10T08:15:24.441Z,11.55
2022-11-10T08:18:23.957Z,11.55
2022-11-10T08:21:10.090Z,11.59
2022-11-10T08:23:56.339Z,11.61
2022-11-10T08:26:42.337Z,11.62
2022-11-10T08:29:30.162Z,11.65
2022-11-10T08:32:16.470Z,11.68
2022-11-10T08:35:03.725Z,11.69
2022-11-10T08:37:50.826Z,11.73
2022-11-10T08:40:37.220Z,11.76
2022-11-10T08:43:23.717Z,11.79
2022-11-10T08:46:10.309Z,11.85
2022-11-10T08:48:56.457Z,11.90
2022-11-10T08:51:44.292Z,11.95
2022-11-10T08:54:30.376Z,11.99
2022-11-10T08:57:16.518Z,12.02
2022-11-10T09:00:02.424Z,12.06
2022-11-10T09:02:48.317Z,12.11
2022-11-10T09:05:36.037Z,12.15
2022-11-10T09:08:22.767Z,12.15
2022-11-10T09:11:10.521Z,12.16
2022-11-10T09:13:59.814Z,12.25
2022-11-10T09:16:45.557Z,12.24
2022-11-10T09:19:35.796Z,12.31
2022-11-10T09:22:21.832Z,12.32
2022-11-10T09:25:08.227Z,12.31
2022-11-10T09:28:14.023Z,12.37
2022-11-10T09:31:00.440Z,12.44
2022-11-10T09:33:46.324Z,12.44
2022-11-10T09:36:32.204Z,12.50
2022-11-10T09:39:21.353Z,12.54
2022-11-10T09:42:29.939Z,12.57
2022-11-10T09:45:25.254Z,12.61
2022-11-10T09:48:27.993Z,12.61
2022-11-10T09:51:27.047Z,12.68
2022-11-10T09:54:28.150Z,12.71
2022-11-10T09:57:16.991Z,12.71
2022-11-10T10:00:04.702Z,12.74
2022-11-10T10:03:00.935Z,12.71
2022-11-10T10:06:30.523Z,12.78
2022-11-10T10:09:47.440Z,12.79
2022-11-10T10:12:46.823Z,12.79
2022-11-10T10:15:50.482Z,12.82
2022-11-10T10:18:51.667Z,12.83
2022-11-10T10:21:40.115Z,12.83
2022-11-10T10:24:32.512Z,12.86
2022-11-10T10:27:26.118Z,12.88
2022-11-10T10:30:18.336Z,12.89
2022-11-10T10:33:16.644Z,12.92
2022-11-10T10:36:08.884Z,12.95
2022-11-10T10:38:57.985Z,12.94
2022-11-10T10:41:47.505Z,12.92
2022-11-10T10:44:33.385Z,13.02
2022-11-10T10:47:36.686Z,13.04
2022-11-10T10:50:25.771Z,13.07
2022-11-10T10:53:11.853Z,13.11
2022-11-10T10:56:01.051Z,13.16
2022-11-10T10:58:55.487Z,13.20
2022-11-10T11:01:43.727Z,13.22
2022-11-10T11:04:37.681Z,13.30
2022-11-10T11:07:24.926Z,13.38
2022-11-10T11:10:19.914Z,13.48
2022-11-10T11:13:22.727Z,13.58
2022-11-10T11:16:09.890Z,13.69
2022-11-10T11:18:56.228Z,13.81
2022-11-10T11:22:04.278Z,13.98
2022-11-10T11:25:30.061Z,14.23
2022-11-10T11:28:45.230Z,14.58
2022-11-10T11:32:12.474Z,15.05
2022-11-10T11:35:16.547Z,15.59
2022-11-10T11:38:14.001Z,16.04
2022-11-10T11:41:18.472Z,16.54
2022-11-10T11:44:16.403Z,16.95
2022-11-10T11:47:36.990Z,17.34
2022-11-10T11:50:30.054Z,17.77
2022-11-10T11:53:52.430Z,18.06
2022-11-10T11:56:41.998Z,18.43
2022-11-10T11:59:50.504Z,18.78
2022-11-10T12:03:02.199Z,19.07
2022-11-10T12:06:00.366Z,19.44
2022-11-10T12:09:10.245Z,19.67
2022-11-10T12:12:15.938Z,19.95
2022-11-10T12:15:09.745Z,20.27
2022-11-10T12:17:55.406Z,20.38
2022-11-10T12:20:47.116Z,20.76
2022-11-10T12:23:36.077Z,21.04
2022-11-10T12:26:45.644Z,21.27
2022-11-10T12:30:03.728Z,21.56
2022-11-10T12:33:15.184Z,21.89
2022-11-10T12:36:03.896Z,22.22
2022-11-10T12:39:18.142Z,22.56
2022-11-10T12:42:05.475Z,22.97
2022-11-10T12:45:06.369Z,23.21
2022-11-10T12:47:53.367Z,23.58
2022-11-10T12:51:23.712Z,23.81
2022-11-10T12:54:16.691Z,24.14
2022-11-10T12:57:07.280Z,24.31
2022-11-10T12:59:59.490Z,24.44
2022-11-10T13:02:46.990Z,24.55
2022-11-10T13:05:40.945Z,24.66
2022-11-10T13:08:41.732Z,24.72
2022-11-10T13:12:18.581Z,24.82
2022-11-10T13:15:37.834Z,24.86
2022-11-10T13:18:31.078Z,24.93
2022-11-10T13:21:50.710Z,24.86
2022-11-10T13:24:42.519Z,24.80
2022-11-10T13:27:38.034Z,24.75
2022-11-10T13:30:45.571Z,24.67
2022-11-10T13:33:36.573Z,24.64
2022-11-10T13:36:50.410Z,24.58
2022-11-10T13:39:36.384Z,24.56
2022-11-10T13:42:26.417Z,24.52
2022-11-10T13:50:32.866Z,24.32
2022-11-10T13:53:57.749Z,24.20
2022-11-10T13:57:30.417Z,24.03
2022-11-10T14:00:19.974Z,23.75
2022-11-10T14:03:08.015Z,23.46
2022-11-10T14:06:13.866Z,23.13
2022-11-10T14:09:23.222Z,22.75
2022-11-10T14:12:28.778Z,22.37
2022-11-10T14:15:18.266Z,22.00
2022-11-10T14:18:23.637Z,21.66
2022-11-10T14:21:12.707Z,21.31
2022-11-10T14:24:29.650Z,20.96
2022-11-10T14:27:22.583Z,20.62
2022-11-10T14:30:30.069Z,20.37
2022-11-10T14:33:21.565Z,20.05
2022-11-10T14:36:08.996Z,19.77
2022-11-10T14:39:13.975Z,19.49
2022-11-10T14:42:02.795Z,19.24
2022-11-10T14:45:08.248Z,18.98
2022-11-10T14:47:56.157Z,18.76
2022-11-10T14:50:44.526Z,18.54
2022-11-10T14:53:33.722Z,18.33
2022-11-10T14:56:28.522Z,18.11
2022-11-10T14:59:15.638Z,17.96
2022-11-10T15:02:02.169Z,17.78
2022-11-10T15:04:51.332Z,17.60
2022-11-10T15:07:38.413Z,17.43
2022-11-10T15:10:27.157Z,17.28
2022-11-10T15:13:13.026Z,17.11
2022-11-10T15:16:27.866Z,16.95
2022-11-10T15:19:32.796Z,16.77
2022-11-10T15:22:21.781Z,16.62
2022-11-10T15:25:16.265Z,16.44
2022-11-10T15:28:05.338Z,16.26
2022-11-10T15:30:55.299Z,16.16
2022-11-10T15:33:46.618Z,16.00
2022-11-10T15:36:39.605Z,15.85
2022-11-10T15:39:27.193Z,15.70
2022-11-10T15:42:22.480Z,15.61
2022-11-10T15:45:08.830Z,15.49
2022-11-10T15:47:55.588Z,15.35
2022-11-10T15:50:43.005Z,15.28
2022-11-10T15:53:34.704Z,15.16
2022-11-10T15:56:22.411Z,15.06
2022-11-10T15:59:10.346Z,14.95
2022-11-10T16:01:57.272Z,14.84
2022-11-10T16:04:43.243Z,14.78
2022-11-10T16:07:30.164Z,14.68
2022-11-10T16:10:16.134Z,14.58
2022-11-10T16:13:02.447Z,14.48
2022-11-10T16:15:48.628Z,14.37
2022-11-10T16:18:34.929Z,14.27
2022-11-10T16:21:25.509Z,14.17
2022-11-10T16:24:11.477Z,14.10
2022-11-10T16:26:58.439Z,13.99
2022-11-10T16:29:44.390Z,13.93
2022-11-10T16:32:31.566Z,13.84
2022-11-10T16:35:17.614Z,13.74
2022-11-10T16:38:22.667Z,13.65
2022-11-10T16:41:11.771Z,13.56
2022-11-10T16:43:57.889Z,13.50
2022-11-10T16:46:45.880Z,13.42
2022-11-10T16:49:35.055Z,13.39
2022-11-10T16:52:22.612Z,13.32
2022-11-10T16:55:12.405Z,13.28
2022-11-10T16:57:59.448Z,13.22
2022-11-10T17:00:47.439Z,13.23
2022-11-10T17:03:43.483Z,13.17
2022-11-10T17:06:30.131Z,13.11
2022-11-10T17:09:22.882Z,13.05
2022-11-10T17:12:12.647Z,13.01
2022-11-10T17:15:00.670Z,12.99
2022-11-10T17:17:50.314Z,12.96
2022-11-10T17:20:39.545Z,12.91
2022-11-10T17:23:26.456Z,12.83
2022-11-10T17:26:15.210Z,12.77
2022-11-10T17:29:01.940Z,12.66
2022-11-10T17:31:50.222Z,12.65
2022-11-10T17:34:37.472Z,12.56
2022-11-10T17:37:24.388Z,12.52
2022-11-10T17:40:24.500Z,12.46
2022-11-10T17:43:12.373Z,12.38
2022-11-10T17:45:58.337Z,12.35
2022-11-10T17:48:44.440Z,12.30
2022-11-10T17:51:32.479Z,12.26
2022-11-10T17:54:18.582Z,12.12
2022-11-10T17:57:04.716Z,12.15
2022-11-10T17:59:53.701Z,12.10
2022-11-10T18:02:40.004Z,12.09
2022-11-10T18:05:26.375Z,12.03
2022-11-10T18:08:14.761Z,12.02
2022-11-10T18:11:01.318Z,11.99
2022-11-10T18:13:47.556Z,11.95
2022-11-10T18:16:35.300Z,11.90
2022-11-10T18:19:21.382Z,11.92
2022-11-10T18:22:07.678Z,11.88
2022-11-10T18:24:53.445Z,11.84
2022-11-10T18:27:39.774Z,11.79
2022-11-10T18:30:26.724Z,11.76
2022-11-10T18:33:14.697Z,11.74
2022-11-10T18:36:01.085Z,11.72
2022-11-10T18:38:47.326Z,11.66
2022-11-10T18:41:52.453Z,11.63
2022-11-10T18:44:38.733Z,11.62
2022-11-10T18:47:25.092Z,11.57
2022-11-10T18:50:11.201Z,11.55
2022-11-10T18:52:57.762Z,11.52
2022-11-10T18:55:53.603Z,11.48
2022-11-10T18:58:40.251Z,11.44
2022-11-10T19:01:26.984Z,11.41
2022-11-10T19:04:13.474Z,11.37
2022-11-10T19:07:01.080Z,11.33
2022-11-10T19:09:47.392Z,11.28
2022-11-10T19:12:33.530Z,11.25
2022-11-10T19:15:19.597Z,11.25
2022-11-10T19:18:05.703Z,11.16
2022-11-10T19:20:51.593Z,11.17
2022-11-10T19:23:38.405Z,11.15
2022-11-10T19:26:26.063Z,11.11
2022-11-10T19:29:12.175Z,11.08
2022-11-10T19:31:58.392Z,10.98
2022-11-10T19:34:44.856Z,10.99
2022-11-10T19:37:34.860Z,10.97
2022-11-10T19:40:21.993Z,10.93
2022-11-10T19:43:08.335Z,10.90
2022-11-10T19:45:54.577Z,10.88
2022-11-10T19:48:41.005Z,10.86
2022-11-10T19:51:28.695Z,10.82
2022-11-10T19:54:15.048Z,10.80
2022-11-10T19:57:01.355Z,10.78
2022-11-10T19:59:47.459Z,10.72
2022-11-10T20:02:33.429Z,10.66
2022-11-10T20:05:20.649Z,10.71
2022-11-10T20:08:16.447Z,10.67
2022-11-10T20:11:09.550Z,10.67
2022-11-10T20:13:57.888Z,10.65
2022-11-10T20:16:43.956Z,10.61
2022-11-10T20:19:31.331Z,10.60
2022-11-10T20:22:17.236Z,10.52
2022-11-10T20:25:03.633Z,10.55
2022-11-10T20:27:49.871Z,10.51
2022-11-10T20:30:38.622Z,10.52
2022-11-10T20:33:24.921Z,10.47
2022-11-10T20:36:20.410Z,10.47
2022-11-10T20:39:07.583Z,10.43
2022-11-10T20:41:53.656Z,10.43
2022-11-10T20:44:40.813Z,10.40
2022-11-10T20:47:28.440Z,10.39
2022-11-10T20:50:17.143Z,10.36
2022-11-10T20:53:06.669Z,10.32
2022-11-10T20:55:57.968Z,10.33
2022-11-10T20:58:45.205Z,10.28
2022-11-10T21:01:32.639Z,10.29
2022-11-10T21:04:19.101Z,10.21
2022-11-10T21:07:05.313Z,10.23
2022-11-10T21:09:51.808Z,10.21
2022-11-10T21:12:50.271Z,10.19
2022-11-10T21:15:40.174Z,10.19
2022-11-10T21:18:34.610Z,10.16
2022-11-10T21:21:23.694Z,10.13
2022-11-10T21:24:10.366Z,10.11
2022-11-10T21:27:10.735Z,10.08
2022-11-10T21:29:58.651Z,10.08
2022-11-10T21:32:44.616Z,10.06
2022-11-10T21:35:38.112Z,10.01
2022-11-10T21:38:24.310Z,10.01
2022-11-10T21:41:10.299Z,9.97
2022-11-10T21:43:56.301Z,9.98
2022-11-10T21:46:42.069Z,9.96
2022-11-10T21:49:28.693Z,9.94
2022-11-10T21:52:15.054Z,9.91
2022-11-10T21:55:00.851Z,9.90
2022-11-10T21:57:46.793Z,9.87
2022-11-10T22:00:32.985Z,9.84
2022-11-10T22:03:19.098Z,9.83
2022-11-10T22:06:07.121Z,9.80
2022-11-10T22:08:53.108Z,9.79
2022-11-10T22:11:58.926Z,9.74
2022-11-10T22:15:03.572Z,9.74
2022-11-10T22:18:08.313Z,9.71
2022-11-10T22:20:54.104Z,9.68
2022-11-10T22:23:59.700Z,9.68
2022-11-10T22:26:45.590Z,9.66
2022-11-10T22:29:32.797Z,9.66
2022-11-10T22:32:18.975Z,9.62
2022-11-10T22:35:05.419Z,9.64
2022-11-10T22:37:52.584Z,9.65
2022-11-10T22:40:57.152Z,9.64
2022-11-10T22:44:01.250Z,9.63
2022-11-10T22:46:51.137Z,9.63
2022-11-10T22:49:37.012Z,9.63
2022-11-10T22:52:24.158Z,9.57
2022-11-10T22:55:09.965Z,9.61
2022-11-10T22:57:56.777Z,9.62
2022-11-10T23:00:44.025Z,9.60
2022-11-10T23:03:30.348Z,9.60
2022-11-10T23:06:17.699Z,9.59
2022-11-10T23:09:04.915Z,9.58
2022-11-10T23:11:50.802Z,9.57
2022-11-10T23:14:37.063Z,9.54
2022-11-10T23:17:23.113Z,9.51
2022-11-10T23:20:10.689Z,9.50
2022-11-10T23:22:56.761Z,9.49
2022-11-10T23:25:43.657Z,9.46
2022-11-10T23:28:30.602Z,9.45
2022-11-10T23:31:18.670Z,9.42
2022-11-10T23:34:07.528Z,9.37
2022-11-10T23:36:53.521Z,9.35
2022-11-10T23:39:40.456Z,9.33
2022-11-10T23:42:27.745Z,9.24
2022-11-10T23:45:14.938Z,9.27
2022-11-10T23:48:05.659Z,9.27
2022-11-10T23:50:52.854Z,9.25
2022-11-10T23:53:39.223Z,9.23
2022-11-10T23:56:25.204Z,9.22
2022-11-10T23:59:11.289Z,9.19
